Terminal Aerodrome Forecast
Issued by NWS Denver/Boulder, CO

Current Version | Previous Version | Text Only | Print | Product List | Glossary On
Versions: 1 2 3 4 5 6 7 8 9 10 11 12 13 14 15 16 17 18 19 20 21 22 23 24 25 26 27 28 29 30 31 32 33 34 35 36 37 38 39 40 41 42 43 44 45 46 47 48 49 50
000
FTUS45 KBOU 011739
TAFDEN
TAF
KDEN 011739Z 0118/0224 02009KT P6SM VCSH SCT010 BKN020 OVC030
      TEMPO 0118/0120 5SM -SHSNRA BKN010
     FM012000 03012KT P6SM VCSH SCT025 BKN035 OVC050
     FM020200 06007KT P6SM SCT015 SCT030 BKN060
     FM020400 18005KT P6SM SCT030 BKN100
     FM020800 24005KT P6SM SCT060 SCT100
     FM021000 21005KT P6SM VCFG FEW010 FEW100
     FM021400 12006KT P6SM FEW100 SCT180=

USA.gov is the U.S. government's official web portal to all federal, state and local government web resources and services.